Terminal Aerodrome Forecast
Issued by NWS Cleveland, OH

Home | Current Version | Previous Version | Text Only | Print | Product List | Glossary On
Versions: 1 2 3 4 5 6 7 8 9 10 11 12 13 14 15 16 17 18
044
FTUS41 KCLE 232330
TAFYNG
TAF
KYNG 232330Z 2400/2424 00000KT P6SM VCTS SCT035CB BKN090
     FM240600 VRB03KT 4SM BR SCT030
     FM241400 27008KT P6SM BKN030
     FM242100 30011KT P6SM SCT045=

USA.gov is the U.S. government's official web portal to all federal, state and local government web resources and services.